createdAt,value
2022-09-28T00:00:43.891Z,98840.53
2022-09-28T00:03:11.373Z,98843.03
2022-09-28T00:05:38.771Z,98841.34
2022-09-28T00:08:06.621Z,98835.97
2022-09-28T00:10:35.445Z,98838.34
2022-09-28T00:13:03.563Z,98839.69
2022-09-28T00:15:30.994Z,98845.06
2022-09-28T00:17:58.363Z,98842.38
2022-09-28T00:20:25.709Z,98845.06
2022-09-28T00:22:53.097Z,98844.22
2022-09-28T00:25:20.475Z,98838.50
2022-09-28T00:27:51.595Z,98847.41
2022-09-28T00:30:18.979Z,98842.88
2022-09-28T00:32:46.330Z,98839.00
2022-09-28T00:35:13.971Z,98839.34
2022-09-28T00:37:41.303Z,98843.22
2022-09-28T00:40:09.484Z,98841.03
2022-09-28T00:42:36.875Z,98842.19
2022-09-28T00:45:07.040Z,98841.34
2022-09-28T00:47:43.162Z,98837.34
2022-09-28T00:50:20.673Z,98832.78
2022-09-28T00:52:53.474Z,98837.50
2022-09-28T00:55:27.402Z,98838.34
2022-09-28T00:57:58.537Z,98846.72
2022-09-28T01:00:27.964Z,98847.72
2022-09-28T01:02:55.836Z,98844.53
2022-09-28T01:05:23.814Z,98848.06
2022-09-28T01:07:51.386Z,98839.47
2022-09-28T01:10:18.860Z,98845.88
2022-09-28T01:12:46.205Z,98852.59
2022-09-28T01:15:14.549Z,98840.81
2022-09-28T01:17:58.657Z,98843.84
2022-09-28T01:20:49.593Z,98844.66
2022-09-28T01:23:46.654Z,98847.38
2022-09-28T01:26:48.083Z,98845.38
2022-09-28T01:29:23.721Z,98853.09
2022-09-28T01:32:01.378Z,98844.53
2022-09-28T01:34:37.377Z,98849.09
2022-09-28T01:37:09.902Z,98856.31
2022-09-28T01:39:42.582Z,98851.09
2022-09-28T01:42:17.204Z,98848.06
2022-09-28T01:44:49.700Z,98844.38
2022-09-28T01:47:20.981Z,98841.84
2022-09-28T01:49:53.270Z,98847.72
2022-09-28T01:52:26.662Z,98851.25
2022-09-28T01:54:59.230Z,98853.94
2022-09-28T01:57:34.972Z,98863.03
2022-09-28T02:00:07.269Z,98852.28
2022-09-28T02:02:49.438Z,98872.56
2022-09-28T02:05:24.834Z,98874.59
2022-09-28T02:07:56.857Z,98880.81
2022-09-28T02:10:28.263Z,98875.94
2022-09-28T02:13:01.997Z,98883.66
2022-09-28T02:15:36.128Z,98876.75
2022-09-28T02:18:04.517Z,98873.56
2022-09-28T02:20:33.406Z,98881.31
2022-09-28T02:23:04.751Z,98877.44
2022-09-28T02:25:35.434Z,98874.94
2022-09-28T02:28:05.773Z,98871.03
2022-09-28T02:30:36.251Z,98877.59
2022-09-28T02:33:09.558Z,98866.84
2022-09-28T02:35:38.750Z,98879.59
2022-09-28T02:38:06.113Z,98877.09
2022-09-28T02:40:35.189Z,98887.16
2022-09-28T02:43:13.426Z,98881.78
2022-09-28T02:45:59.862Z,98892.72
2022-09-28T02:49:10.488Z,98898.09
2022-09-28T02:51:46.052Z,98901.28
2022-09-28T02:54:32.831Z,98898.75
2022-09-28T02:57:13.211Z,98894.06
2022-09-28T02:59:49.102Z,98894.41
2022-09-28T03:02:26.385Z,98901.09
2022-09-28T03:05:14.415Z,98900.78
2022-09-28T03:07:47.395Z,98896.78
2022-09-28T03:10:20.926Z,98898.78
2022-09-28T03:12:49.455Z,98899.47
2022-09-28T03:15:23.633Z,98897.47
2022-09-28T03:17:51.711Z,98897.44
2022-09-28T03:20:19.475Z,98906.53
2022-09-28T03:23:00.513Z,98908.00
2022-09-28T03:25:34.467Z,98908.00
2022-09-28T03:28:02.956Z,98909.88
2022-09-28T03:30:35.262Z,98914.22
2022-09-28T03:33:02.731Z,98910.88
2022-09-28T03:35:32.497Z,98909.69
2022-09-28T03:37:59.931Z,98921.78
2022-09-28T03:40:29.362Z,98927.31
2022-09-28T03:42:57.144Z,98923.22
2022-09-28T03:45:25.139Z,98918.97
2022-09-28T03:47:54.319Z,98920.47
2022-09-28T03:50:21.778Z,98917.78
2022-09-28T03:52:49.258Z,98924.72
2022-09-28T03:55:16.886Z,98932.13
2022-09-28T03:57:44.264Z,98926.59
2022-09-28T04:00:12.942Z,98937.72
2022-09-28T04:02:43.749Z,98938.41
2022-09-28T04:05:12.819Z,98941.59
2022-09-28T04:07:40.154Z,98947.81
2022-09-28T04:10:08.759Z,98947.31
2022-09-28T04:12:36.142Z,98940.75
2022-09-28T04:15:05.549Z,98937.22
2022-09-28T04:17:36.495Z,98947.97
2022-09-28T04:20:09.714Z,98946.81
2022-09-28T04:22:46.990Z,98943.75
2022-09-28T04:25:14.516Z,98952.53
2022-09-28T04:27:41.875Z,98954.00
2022-09-28T04:30:10.992Z,98960.06
2022-09-28T04:32:39.344Z,98954.00
2022-09-28T04:35:09.153Z,98955.19
2022-09-28T04:37:36.131Z,98965.09
2022-09-28T04:40:06.031Z,98958.41
2022-09-28T04:42:34.346Z,98961.03
2022-09-28T04:45:01.683Z,98966.59
2022-09-28T04:47:29.967Z,98968.75
2022-09-28T04:50:23.573Z,98957.31
2022-09-28T04:53:09.379Z,98958.78
2022-09-28T04:55:38.887Z,98957.47
2022-09-28T04:58:06.308Z,98963.19
2022-09-28T05:00:33.717Z,98962.38
2022-09-28T05:03:21.864Z,98963.06
2022-09-28T05:06:14.254Z,98963.19
2022-09-28T05:08:44.227Z,98963.19
2022-09-28T05:11:14.298Z,98965.72
2022-09-28T05:13:43.174Z,98968.22
2022-09-28T05:16:11.165Z,98964.56
2022-09-28T05:18:58.495Z,98966.59
2022-09-28T05:21:26.346Z,98968.41
2022-09-28T05:23:53.984Z,98966.88
2022-09-28T05:26:22.940Z,98968.78
2022-09-28T05:28:50.330Z,98967.56
2022-09-28T05:31:23.611Z,98967.25
2022-09-28T05:34:20.897Z,98968.91
2022-09-28T05:36:48.527Z,98969.22
2022-09-28T05:39:17.350Z,98962.34
2022-09-28T05:41:47.050Z,98953.06
2022-09-28T05:44:14.577Z,98962.53
2022-09-28T05:46:42.080Z,98956.19
2022-09-28T05:49:10.783Z,98958.22
2022-09-28T05:51:38.189Z,98960.91
2022-09-28T05:54:06.530Z,98955.88
2022-09-28T05:56:38.246Z,98960.06
2022-09-28T05:59:08.944Z,98954.88
2022-09-28T06:01:37.406Z,98962.59
2022-09-28T06:04:08.326Z,98966.28
2022-09-28T06:06:36.226Z,98963.72
2022-09-28T06:09:03.872Z,98960.22
2022-09-28T06:11:58.721Z,98962.56
2022-09-28T06:14:53.596Z,98964.59
2022-09-28T06:17:22.302Z,98953.34
2022-09-28T06:19:58.931Z,98962.91
2022-09-28T06:22:31.323Z,98961.59
2022-09-28T06:25:04.747Z,98970.31
2022-09-28T06:27:32.357Z,98971.31
2022-09-28T06:30:01.339Z,98962.25
2022-09-28T06:32:30.072Z,98973.66
2022-09-28T06:34:57.918Z,98967.94
2022-09-28T06:37:27.217Z,98964.78
2022-09-28T06:39:55.501Z,98965.25
2022-09-28T06:42:23.179Z,98963.75
2022-09-28T06:45:11.381Z,98967.31
2022-09-28T06:48:04.811Z,98971.28
2022-09-28T06:50:41.015Z,98972.66
2022-09-28T06:53:34.319Z,98969.09
2022-09-28T06:56:32.880Z,98975.69
2022-09-28T06:59:00.747Z,98978.00
2022-09-28T07:01:30.646Z,98971.81
2022-09-28T07:04:06.094Z,98972.66
2022-09-28T07:06:51.945Z,98970.47
2022-09-28T07:09:50.341Z,98973.28
2022-09-28T07:12:35.704Z,98972.28
2022-09-28T07:15:21.975Z,98970.78
2022-09-28T07:18:02.064Z,98971.97
2022-09-28T07:20:33.376Z,98964.06
2022-09-28T07:23:17.360Z,98965.25
2022-09-28T07:26:24.949Z,98967.31
2022-09-28T07:29:05.854Z,98973.00
2022-09-28T07:31:59.435Z,98965.97
2022-09-28T07:34:28.308Z,98967.63
2022-09-28T07:37:04.947Z,98962.91
2022-09-28T07:39:32.335Z,98960.59
2022-09-28T07:42:02.905Z,98959.41
2022-09-28T07:44:31.821Z,98959.22
2022-09-28T07:47:00.705Z,98950.47
2022-09-28T07:49:41.575Z,98956.13
2022-09-28T07:52:15.279Z,98950.38
2022-09-28T07:55:07.385Z,98954.06
2022-09-28T07:57:56.833Z,98953.56
2022-09-28T08:00:44.509Z,98943.00
2022-09-28T08:03:11.857Z,98942.63
2022-09-28T08:05:40.758Z,98945.16
2022-09-28T08:08:08.434Z,98941.63
2022-09-28T08:10:36.038Z,98941.63
2022-09-28T08:13:22.247Z,98935.88
2022-09-28T08:16:13.931Z,98942.28
2022-09-28T08:18:51.094Z,98941.47
2022-09-28T08:21:21.623Z,98941.97
2022-09-28T08:23:49.366Z,98947.16
2022-09-28T08:26:16.893Z,98940.59
2022-09-28T08:28:45.611Z,98949.53
2022-09-28T08:31:31.414Z,98953.22
2022-09-28T08:34:22.219Z,98951.06
2022-09-28T08:37:09.562Z,98959.94
2022-09-28T08:39:55.432Z,98951.91
2022-09-28T08:42:51.583Z,98951.09
2022-09-28T08:45:30.971Z,98959.84
2022-09-28T08:48:04.568Z,98952.25
2022-09-28T08:50:46.141Z,98960.81
2022-09-28T08:53:41.213Z,98957.75
2022-09-28T08:56:18.941Z,98954.91
2022-09-28T08:58:54.822Z,98953.56
2022-09-28T09:01:26.855Z,98962.63
2022-09-28T09:03:56.155Z,98956.72
2022-09-28T09:07:07.064Z,98958.41
2022-09-28T09:09:55.846Z,98953.88
2022-09-28T09:12:32.247Z,98964.13
2022-09-28T09:15:24.445Z,98962.09
2022-09-28T09:18:07.847Z,98967.47
2022-09-28T09:20:57.526Z,98954.19
2022-09-28T09:23:37.931Z,98965.44
2022-09-28T09:26:17.267Z,98965.06
2022-09-28T09:29:17.391Z,98973.22
2022-09-28T09:32:07.353Z,98969.69
2022-09-28T09:34:57.629Z,98965.31
2022-09-28T09:38:20.753Z,98964.16
2022-09-28T09:41:20.837Z,98965.59
2022-09-28T09:44:23.272Z,98966.41
2022-09-28T09:46:55.216Z,98973.22
2022-09-28T09:49:50.328Z,98975.31
2022-09-28T09:52:23.366Z,98980.25
2022-09-28T09:54:55.959Z,98982.66
2022-09-28T09:57:51.096Z,98976.91
2022-09-28T10:00:54.362Z,98978.22
2022-09-28T10:03:44.558Z,98974.50
2022-09-28T10:06:20.374Z,98978.50
2022-09-28T10:08:52.565Z,98975.81
2022-09-28T10:11:28.378Z,98974.63
2022-09-28T10:13:58.038Z,98979.34
2022-09-28T10:16:41.681Z,98984.06
2022-09-28T10:19:16.782Z,98974.78
2022-09-28T10:22:05.676Z,98991.13
2022-09-28T10:24:38.715Z,98983.88
2022-09-28T10:27:11.530Z,98986.91
2022-09-28T10:29:52.337Z,98981.53
2022-09-28T10:32:22.718Z,98981.88
2022-09-28T10:34:53.559Z,98987.44
2022-09-28T10:37:24.183Z,98980.38
2022-09-28T10:43:25.556Z,98981.16
2022-09-28T10:46:05.300Z,98982.16
2022-09-28T10:48:49.832Z,98976.13
2022-09-28T10:51:17.823Z,98973.78
2022-09-28T10:53:59.868Z,98975.59
2022-09-28T10:56:47.383Z,98967.03
2022-09-28T10:59:37.261Z,98967.41
2022-09-28T11:02:29.491Z,98971.13
2022-09-28T11:05:06.641Z,98969.59
2022-09-28T11:07:46.258Z,98976.00
2022-09-28T11:10:21.613Z,98973.13
2022-09-28T11:12:50.360Z,98962.69
2022-09-28T11:15:21.421Z,98963.00
2022-09-28T11:17:52.416Z,98969.56
2022-09-28T11:20:32.755Z,98976.53
2022-09-28T11:23:18.603Z,98966.63
2022-09-28T11:25:57.669Z,98963.81
2022-09-28T11:28:30.767Z,98963.28
2022-09-28T11:30:59.716Z,98966.09
2022-09-28T11:33:35.714Z,98967.06
2022-09-28T11:36:32.708Z,98973.78
2022-09-28T11:39:08.474Z,98971.78
2022-09-28T11:41:59.776Z,98974.09
2022-09-28T11:44:39.142Z,98974.75
2022-09-28T11:47:33.212Z,98970.03
2022-09-28T11:50:08.066Z,98974.75
2022-09-28T11:52:43.962Z,98979.81
2022-09-28T11:55:17.332Z,98980.66
2022-09-28T11:57:48.911Z,98969.59
2022-09-28T12:00:20.724Z,98968.38
2022-09-28T12:02:55.990Z,98973.94
2022-09-28T12:05:30.815Z,98967.84
2022-09-28T12:08:01.998Z,98972.06
2022-09-28T12:10:54.640Z,98984.50
2022-09-28T12:13:41.843Z,98978.94
2022-09-28T12:16:38.752Z,98980.78
2022-09-28T12:19:07.288Z,98976.44
2022-09-28T12:21:40.666Z,98972.38
2022-09-28T12:24:16.251Z,98980.75
2022-09-28T12:26:48.821Z,98971.84
2022-09-28T12:29:21.592Z,98988.38
2022-09-28T12:31:59.848Z,98981.19
2022-09-28T12:34:27.367Z,98980.13
2022-09-28T12:37:09.170Z,98987.56
2022-09-28T12:39:58.138Z,98985.19
2022-09-28T12:42:44.616Z,98988.69
2022-09-28T12:45:27.323Z,98988.53
2022-09-28T12:48:14.619Z,98986.00
2022-09-28T12:50:56.742Z,98991.41
2022-09-28T12:53:42.606Z,98995.59
2022-09-28T12:56:19.365Z,98995.59
2022-09-28T12:58:59.919Z,99004.91
2022-09-28T13:01:47.423Z,98999.69
2022-09-28T13:04:53.040Z,99002.53
2022-09-28T13:07:29.724Z,98993.25
2022-09-28T13:10:10.646Z,99005.19
2022-09-28T13:12:50.712Z,99000.81
2022-09-28T13:15:40.188Z,99006.38
2022-09-28T13:18:14.735Z,99009.06
2022-09-28T13:20:56.914Z,99002.16
2022-09-28T13:23:27.599Z,99006.38
2022-09-28T13:26:01.715Z,99010.56
2022-09-28T13:28:31.678Z,99012.25
2022-09-28T13:31:01.070Z,99008.53
2022-09-28T13:33:32.641Z,99011.06
2022-09-28T13:36:00.488Z,99010.69
2022-09-28T13:38:46.379Z,99012.53
2022-09-28T13:41:22.632Z,99009.00
2022-09-28T13:44:23.640Z,99012.53
2022-09-28T13:47:15.358Z,99014.41
2022-09-28T13:49:58.088Z,99009.66
2022-09-28T13:52:37.202Z,99014.16
2022-09-28T13:55:19.003Z,99013.06
2022-09-28T13:57:53.126Z,99005.97
2022-09-28T14:00:25.767Z,98995.72
2022-09-28T14:02:56.921Z,98999.06
2022-09-28T14:05:45.790Z,99001.09
2022-09-28T14:08:44.257Z,99005.47
2022-09-28T14:11:48.507Z,99005.31
2022-09-28T14:14:45.876Z,99006.97
2022-09-28T14:17:49.905Z,99009.84
2022-09-28T14:20:19.880Z,99018.25
2022-09-28T14:23:12.601Z,99015.53
2022-09-28T14:25:44.427Z,99015.41
2022-09-28T14:28:34.185Z,99017.63
2022-09-28T14:31:07.179Z,99019.28
2022-09-28T14:33:35.499Z,99018.75
2022-09-28T14:36:06.772Z,99018.47
2022-09-28T14:38:38.763Z,99021.50
2022-09-28T14:41:09.257Z,99023.50
2022-09-28T14:43:56.784Z,99021.09
2022-09-28T14:46:37.307Z,99012.84
2022-09-28T14:49:26.404Z,99013.69
2022-09-28T14:52:02.994Z,99009.31
2022-09-28T14:54:40.955Z,99002.44
2022-09-28T14:57:17.665Z,99006.63
2022-09-28T14:59:45.604Z,99007.63
2022-09-28T15:02:23.038Z,99009.13
2022-09-28T15:04:54.618Z,98999.38
2022-09-28T15:07:24.246Z,99006.13
2022-09-28T15:09:53.355Z,99006.00
2022-09-28T15:12:24.308Z,98998.13
2022-09-28T15:14:54.536Z,99008.69
2022-09-28T15:17:27.004Z,99010.38
2022-09-28T15:20:10.702Z,99007.88
2022-09-28T15:22:45.611Z,99001.28
2022-09-28T15:25:14.581Z,99004.66
2022-09-28T15:27:41.915Z,99001.97
2022-09-28T15:30:21.499Z,99007.84
2022-09-28T15:32:50.507Z,99004.13
2022-09-28T15:35:21.319Z,99000.91
2022-09-28T15:37:49.831Z,99014.53
2022-09-28T15:40:20.146Z,99011.66
2022-09-28T15:42:47.747Z,99011.47
2022-09-28T15:45:25.191Z,99011.84
2022-09-28T15:47:57.366Z,99008.97
2022-09-28T15:50:27.638Z,99007.97
2022-09-28T15:52:57.905Z,99007.75
2022-09-28T15:55:28.797Z,99016.69
2022-09-28T15:58:07.901Z,99010.94
2022-09-28T16:00:35.416Z,99021.72
2022-09-28T16:03:21.292Z,99012.31
2022-09-28T16:05:50.833Z,99015.50
2022-09-28T16:08:20.084Z,99019.69
2022-09-28T16:11:08.699Z,99018.69
2022-09-28T16:13:37.793Z,99028.44
2022-09-28T16:16:05.667Z,99024.25
2022-09-28T16:18:39.109Z,99028.59
2022-09-28T16:21:37.594Z,99022.84
2022-09-28T16:24:05.832Z,99032.16
2022-09-28T16:26:35.860Z,99024.72
2022-09-28T16:29:08.941Z,99027.78
2022-09-28T16:31:36.646Z,99026.41
2022-09-28T16:34:18.819Z,99025.75
2022-09-28T16:36:48.005Z,99027.59
2022-09-28T16:39:16.949Z,99019.34
2022-09-28T16:41:48.865Z,99020.53
2022-09-28T16:44:23.385Z,99023.88
2022-09-28T16:46:52.391Z,99016.66
2022-09-28T16:49:23.032Z,99020.34
2022-09-28T16:51:50.489Z,99017.47
2022-09-28T16:54:19.643Z,99020.16
2022-09-28T16:56:47.594Z,99021.06
2022-09-28T16:59:15.219Z,99024.25
2022-09-28T17:01:43.174Z,99029.63
2022-09-28T17:04:10.637Z,99028.78
2022-09-28T17:06:39.684Z,99034.47
2022-09-28T17:09:09.005Z,99033.81
2022-09-28T17:11:36.360Z,99031.28
2022-09-28T17:14:04.027Z,99038.88
2022-09-28T17:16:58.201Z,99037.03
2022-09-28T17:19:22.145Z,99034.00
2022-09-28T17:21:51.790Z,99032.31
2022-09-28T17:24:19.576Z,99032.81
2022-09-28T17:26:49.724Z,99029.25
2022-09-28T17:29:17.289Z,99033.81
2022-09-28T17:31:46.075Z,99030.13
2022-09-28T17:34:15.072Z,99030.13
2022-09-28T17:36:43.572Z,99036.81
2022-09-28T17:39:14.243Z,99032.28
2022-09-28T17:41:41.798Z,99039.69
2022-09-28T17:44:09.495Z,99042.03
2022-09-28T17:46:39.208Z,99034.13
2022-09-28T17:49:10.300Z,99032.59
2022-09-28T17:51:38.096Z,99032.28
2022-09-28T17:54:07.011Z,99038.00
2022-09-28T17:56:36.787Z,99036.81
2022-09-28T17:59:04.703Z,99040.22
2022-09-28T18:01:33.301Z,99043.91
2022-09-28T18:04:01.301Z,99043.66
2022-09-28T18:06:28.778Z,99041.31
2022-09-28T18:08:56.247Z,99044.81
2022-09-28T18:11:23.753Z,99038.41
2022-09-28T18:13:52.575Z,99037.88
2022-09-28T18:16:20.553Z,99034.47
2022-09-28T18:18:48.436Z,99033.16
2022-09-28T18:21:15.918Z,99040.22
2022-09-28T18:23:43.343Z,99036.31
2022-09-28T18:26:14.665Z,99038.84
2022-09-28T18:28:42.442Z,99040.88
2022-09-28T18:31:13.183Z,99041.53
2022-09-28T18:33:41.039Z,99037.34
2022-09-28T18:36:09.177Z,99044.22
2022-09-28T18:38:37.036Z,99042.03
2022-09-28T18:41:08.578Z,99042.19
2022-09-28T18:43:36.577Z,99053.63
2022-09-28T18:46:08.202Z,99046.41
2022-09-28T18:48:37.386Z,99045.53
2022-09-28T18:51:08.977Z,99039.69
2022-09-28T18:53:37.191Z,99047.59
2022-09-28T18:56:09.132Z,99043.53
2022-09-28T18:58:37.255Z,99051.78
2022-09-28T19:01:28.551Z,99044.56
2022-09-28T19:03:59.246Z,99050.59
2022-09-28T19:06:26.874Z,99053.09
2022-09-28T19:08:55.381Z,99044.19
2022-09-28T19:11:23.471Z,99048.72
2022-09-28T19:13:51.134Z,99044.19
2022-09-28T19:16:20.586Z,99043.16
2022-09-28T19:18:48.695Z,99040.66
2022-09-28T19:21:17.817Z,99041.84
2022-09-28T19:23:49.349Z,99047.91
2022-09-28T19:26:19.566Z,99048.94
2022-09-28T19:28:47.583Z,99040.00
2022-09-28T19:31:15.304Z,99045.22
2022-09-28T19:33:42.748Z,99041.84
2022-09-28T19:36:12.065Z,99031.91
2022-09-28T19:38:41.528Z,99044.34
2022-09-28T19:41:09.685Z,99038.81
2022-09-28T19:43:37.172Z,99044.34
2022-09-28T19:46:06.691Z,99045.22
2022-09-28T19:48:35.048Z,99040.66
2022-09-28T19:51:04.282Z,99047.38
2022-09-28T19:53:33.207Z,99051.25
2022-09-28T19:56:03.156Z,99041.50
2022-09-28T19:58:33.051Z,99039.63
2022-09-28T20:01:00.518Z,99044.84
2022-09-28T20:03:28.255Z,99047.72
2022-09-28T20:06:00.131Z,99043.53
2022-09-28T20:08:28.065Z,99053.34
2022-09-28T20:10:55.859Z,99051.13
2022-09-28T20:13:30.569Z,99054.47
2022-09-28T20:16:03.498Z,99052.63
2022-09-28T20:18:33.624Z,99051.63
2022-09-28T20:21:04.859Z,99055.13
2022-09-28T20:23:32.672Z,99055.97
2022-09-28T20:26:00.113Z,99058.84
2022-09-28T20:28:28.943Z,99061.38
2022-09-28T20:31:02.034Z,99057.00
2022-09-28T20:33:29.538Z,99058.47
2022-09-28T20:35:56.953Z,99052.28
2022-09-28T20:38:24.397Z,99059.34
2022-09-28T20:40:51.851Z,99054.78
2022-09-28T20:43:19.293Z,99052.09
2022-09-28T20:45:49.729Z,99055.63
2022-09-28T20:48:17.382Z,99055.25
2022-09-28T20:50:44.775Z,99057.13
2022-09-28T20:53:12.117Z,99053.59
2022-09-28T20:55:39.510Z,99054.59
2022-09-28T20:58:06.848Z,99055.25
2022-09-28T21:00:34.313Z,99051.91
2022-09-28T21:03:03.225Z,99060.00
2022-09-28T21:05:30.791Z,99059.16
2022-09-28T21:07:58.807Z,99060.84
2022-09-28T21:10:26.220Z,99061.00
2022-09-28T21:12:53.614Z,99063.53
2022-09-28T21:15:20.988Z,99057.28
2022-09-28T21:17:48.358Z,99055.13
2022-09-28T21:20:17.208Z,99060.00
2022-09-28T21:22:44.684Z,99063.69
2022-09-28T21:25:12.033Z,99060.00
2022-09-28T21:27:39.374Z,99061.50
2022-09-28T21:30:08.037Z,99055.44
2022-09-28T21:32:35.381Z,99059.69
2022-09-28T21:35:02.736Z,99052.63
2022-09-28T21:37:31.556Z,99056.31
2022-09-28T21:39:58.910Z,99058.19
2022-09-28T21:42:26.246Z,99055.50
2022-09-28T21:44:57.420Z,99050.09
2022-09-28T21:47:26.735Z,99052.97
2022-09-28T21:49:54.104Z,99048.44
2022-09-28T21:52:21.451Z,99055.84
2022-09-28T21:54:50.303Z,99053.81
2022-09-28T21:57:17.733Z,99047.59
2022-09-28T21:59:45.073Z,99044.41
2022-09-28T22:02:12.431Z,99044.22
2022-09-28T22:04:39.810Z,99054.16
2022-09-28T22:07:07.182Z,99046.28
2022-09-28T22:09:34.540Z,99049.97
2022-09-28T22:12:03.488Z,99047.09
2022-09-28T22:14:30.856Z,99037.53
2022-09-28T22:16:58.243Z,99048.97
2022-09-28T22:19:26.219Z,99044.59
2022-09-28T22:21:53.560Z,99037.88
2022-09-28T22:24:20.977Z,99049.31
2022-09-28T22:26:48.453Z,99042.22
2022-09-28T22:29:17.226Z,99045.41
2022-09-28T22:31:45.095Z,99045.78
2022-09-28T22:34:12.464Z,99040.41
2022-09-28T22:36:39.816Z,99045.78
2022-09-28T22:39:07.216Z,99041.41
2022-09-28T22:41:34.644Z,99048.16
2022-09-28T22:44:02.296Z,99048.63
2022-09-28T22:46:31.180Z,99050.31
2022-09-28T22:48:59.811Z,99050.69
2022-09-28T22:51:28.785Z,99051.69
2022-09-28T22:53:56.435Z,99046.97
2022-09-28T22:56:24.234Z,99047.34
2022-09-28T22:58:51.650Z,99050.19
2022-09-28T23:01:20.623Z,99053.53
2022-09-28T23:03:50.810Z,99050.84
2022-09-28T23:06:21.439Z,99052.22
2022-09-28T23:08:51.219Z,99050.69
2022-09-28T23:11:18.585Z,99054.88
2022-09-28T23:13:49.180Z,99052.34
2022-09-28T23:16:16.767Z,99056.56
2022-09-28T23:18:44.143Z,99052.03
2022-09-28T23:21:14.931Z,99045.78
2022-09-28T23:23:42.567Z,99053.50
2022-09-28T23:26:13.780Z,99048.47
2022-09-28T23:28:41.653Z,99045.41
2022-09-28T23:31:10.564Z,99051.66
2022-09-28T23:33:37.972Z,99048.13
2022-09-28T23:36:06.030Z,99051.28
2022-09-28T23:38:35.196Z,99055.00
2022-09-28T23:41:02.630Z,99052.47
2022-09-28T23:43:30.076Z,99049.25
2022-09-28T23:45:57.512Z,99048.59
2022-09-28T23:48:24.827Z,99051.47
2022-09-28T23:50:52.177Z,99055.00
2022-09-28T23:53:19.527Z,99046.28
2022-09-28T23:55:48.298Z,99052.47
2022-09-28T23:58:16.159Z,99059.53
